Time,TemperatureF,DewpointF,PressureIn,WindDirection,WindDirectionDegrees,WindSpeedMPH,WindSpeedGustMPH,Humidity,HourlyPrecipIn,Conditions,Clouds,dailyrainin,SolarRadiationWatts/m^2,SoftwareType,DateUTC
2013-08-03 00:02:00,72.9,53.2,29.83,WNW,294,0.0,0.0,50,0.00,,,0.00,0.0,WUHU216DAVISVP2,2013-08-03 07:02:00,
2013-08-03 00:07:00,72.6,53.5,29.83,WNW,294,0.0,0.0,51,0.00,,,0.00,0.0,WUHU216DAVISVP2,2013-08-03 07:07:00,
2013-08-03 00:12:00,72.3,53.2,29.83,WNW,294,0.0,0.0,51,0.00,,,0.00,0.0,WUHU216DAVISVP2,2013-08-03 07:12:00,
2013-08-03 00:17:00,71.9,54.0,29.83,WNW,294,1.0,1.0,53,0.00,,,0.00,0.0,WUHU216DAVISVP2,2013-08-03 07:17:00,
2013-08-03 00:22:00,71.1,53.7,29.84,WNW,294,0.0,1.0,54,0.00,,,0.00,0.0,WUHU216DAVISVP2,2013-08-03 07:22:00,
2013-08-03 00:27:00,70.7,53.4,29.84,WNW,294,0.0,1.0,54,0.00,,,0.00,0.0,WUHU216DAVISVP2,2013-08-03 07:27:00,
2013-08-03 00:32:00,70.3,53.5,29.84,WNW,294,0.0,1.0,55,0.00,,,0.00,0.0,WUHU216DAVISVP2,2013-08-03 07:32:00,
2013-08-03 00:37:00,70.1,53.3,29.83,WNW,294,0.0,1.0,55,0.00,,,0.00,0.0,WUHU216DAVISVP2,2013-08-03 07:37:00,
2013-08-03 00:42:00,70.0,53.2,29.83,WNW,294,0.0,0.0,55,0.00,,,0.00,0.0,WUHU216DAVISVP2,2013-08-03 07:42:00,
2013-08-03 00:47:00,69.9,53.6,29.83,WNW,294,0.0,0.0,56,0.00,,,0.00,0.0,WUHU216DAVISVP2,2013-08-03 07:47:00,
2013-08-03 00:52:00,69.8,54.5,29.83,WNW,294,0.0,0.0,58,0.00,,,0.00,0.0,WUHU216DAVISVP2,2013-08-03 07:52:00,
2013-08-03 00:57:00,69.5,54.7,29.83,WNW,294,0.0,0.0,59,0.00,,,0.00,0.0,WUHU216DAVISVP2,2013-08-03 07:57:00,
2013-08-03 01:02:00,69.3,54.0,29.83,WNW,294,0.0,0.0,58,0.00,,,0.00,0.0,WUHU216DAVISVP2,2013-08-03 08:02:00,
2013-08-03 01:07:00,69.2,54.0,29.83,WNW,294,0.0,0.0,58,0.00,,,0.00,0.0,WUHU216DAVISVP2,2013-08-03 08:07:00,
2013-08-03 01:12:00,69.2,53.5,29.83,WNW,294,0.0,0.0,57,0.00,,,0.00,0.0,WUHU216DAVISVP2,2013-08-03 08:12:00,
2013-08-03 01:17:00,69.4,53.7,29.83,WNW,294,1.0,1.0,57,0.00,,,0.00,0.0,WUHU216DAVISVP2,2013-08-03 08:17:00,
2013-08-03 01:22:00,69.7,53.4,29.84,WNW,294,0.0,1.0,56,0.00,,,0.00,0.0,WUHU216DAVISVP2,2013-08-03 08:22:00,
2013-08-03 01:27:00,69.9,54.1,29.84,WNW,294,0.0,1.0,57,0.00,,,0.00,0.0,WUHU216DAVISVP2,2013-08-03 08:27:00,
2013-08-03 01:32:00,69.5,54.7,29.84,WNW,294,0.0,1.0,59,0.00,,,0.00,0.0,WUHU216DAVISVP2,2013-08-03 08:32:00,
2013-08-03 01:37:00,69.0,54.2,29.84,WNW,294,0.0,0.0,59,0.00,,,0.00,0.0,WUHU216DAVISVP2,2013-08-03 08:37:00,
2013-08-03 01:42:00,68.7,54.4,29.83,WNW,294,0.0,0.0,60,0.00,,,0.00,0.0,WUHU216DAVISVP2,2013-08-03 08:42:00,
2013-08-03 01:47:00,68.4,54.6,29.84,WNW,294,0.0,0.0,61,0.00,,,0.00,0.0,WUHU216DAVISVP2,2013-08-03 08:47:00,
2013-08-03 01:52:00,68.1,54.8,29.83,WNW,294,0.0,0.0,62,0.00,,,0.00,0.0,WUHU216DAVISVP2,2013-08-03 08:52:00,
2013-08-03 01:57:00,67.9,54.1,29.83,WNW,294,0.0,0.0,61,0.00,,,0.00,0.0,WUHU216DAVISVP2,2013-08-03 08:57:00,
2013-08-03 02:02:00,67.8,53.6,29.83,WNW,294,0.0,0.0,60,0.00,,,0.00,0.0,WUHU216DAVISVP2,2013-08-03 09:02:00,
2013-08-03 02:07:00,67.7,54.4,29.83,WNW,294,0.0,0.0,62,0.00,,,0.00,0.0,WUHU216DAVISVP2,2013-08-03 09:07:00,
2013-08-03 02:12:00,67.7,54.8,29.83,WNW,294,0.0,0.0,63,0.00,,,0.00,0.0,WUHU216DAVISVP2,2013-08-03 09:12:00,
2013-08-03 02:17:00,67.6,53.8,29.83,WNW,294,0.0,0.0,61,0.00,,,0.00,0.0,WUHU216DAVISVP2,2013-08-03 09:17:00,
2013-08-03 02:22:00,67.6,53.8,29.83,WNW,294,0.0,0.0,61,0.00,,,0.00,0.0,WUHU216DAVISVP2,2013-08-03 09:22:00,
2013-08-03 02:27:00,67.7,54.4,29.83,WNW,294,0.0,0.0,62,0.00,,,0.00,0.0,WUHU216DAVISVP2,2013-08-03 09:27:00,
2013-08-03 02:32:00,67.5,54.6,29.83,WNW,294,0.0,0.0,63,0.00,,,0.00,0.0,WUHU216DAVISVP2,2013-08-03 09:32:00,
2013-08-03 02:37:00,67.2,54.4,29.83,WNW,294,0.0,0.0,63,0.00,,,0.00,0.0,WUHU216DAVISVP2,2013-08-03 09:37:00,
2013-08-03 02:42:00,67.1,54.3,29.83,WNW,294,0.0,0.0,63,0.00,,,0.00,0.0,WUHU216DAVISVP2,2013-08-03 09:42:00,
2013-08-03 02:47:00,67.0,54.2,29.83,WNW,294,0.0,0.0,63,0.00,,,0.00,0.0,WUHU216DAVISVP2,2013-08-03 09:47:00,
2013-08-03 02:52:00,67.1,54.3,29.83,WNW,294,0.0,2.0,63,0.00,,,0.00,0.0,WUHU216DAVISVP2,2013-08-03 09:52:00,
2013-08-03 02:57:00,67.4,54.5,29.83,WNW,294,0.0,2.0,63,0.00,,,0.00,0.0,WUHU216DAVISVP2,2013-08-03 09:57:00,
2013-08-03 03:02:00,67.7,54.4,29.83,WNW,294,0.0,2.0,62,0.00,,,0.00,0.0,WUHU216DAVISVP2,2013-08-03 10:02:00,
2013-08-03 03:07:00,67.8,54.5,29.83,WNW,294,0.0,2.0,62,0.00,,,0.00,0.0,WUHU216DAVISVP2,2013-08-03 10:07:00,
2013-08-03 03:12:00,67.7,54.8,29.83,WNW,294,0.0,2.0,63,0.00,,,0.00,0.0,WUHU216DAVISVP2,2013-08-03 10:12:00,
2013-08-03 03:17:00,67.3,54.3,29.83,WNW,294,0.0,2.0,63,0.00,,,0.00,0.0,WUHU216DAVISVP2,2013-08-03 10:17:00,
2013-08-03 03:22:00,67.0,53.5,29.83,WNW,294,0.0,1.0,62,0.00,,,0.00,0.0,WUHU216DAVISVP2,2013-08-03 10:22:00,
2013-08-03 03:27:00,67.0,54.0,29.83,WNW,294,0.0,1.0,63,0.00,,,0.00,0.0,WUHU216DAVISVP2,2013-08-03 10:27:00,
2013-08-03 03:32:00,67.0,54.0,29.83,WNW,294,0.0,0.0,63,0.00,,,0.00,0.0,WUHU216DAVISVP2,2013-08-03 10:32:00,
2013-08-03 03:37:00,66.9,54.3,29.83,WNW,294,0.0,0.0,64,0.00,,,0.00,0.0,WUHU216DAVISVP2,2013-08-03 10:37:00,
2013-08-03 03:42:00,66.5,54.4,29.83,WNW,294,0.0,1.0,65,0.00,,,0.00,0.0,WUHU216DAVISVP2,2013-08-03 10:42:00,
2013-08-03 03:47:00,66.3,54.2,29.83,WNW,294,0.0,1.0,65,0.00,,,0.00,0.0,WUHU216DAVISVP2,2013-08-03 10:47:00,
2013-08-03 03:52:00,66.0,54.9,29.83,WNW,294,0.0,1.0,67,0.00,,,0.00,0.0,WUHU216DAVISVP2,2013-08-03 10:52:00,
2013-08-03 03:57:00,65.7,55.0,29.83,WNW,294,0.0,1.0,68,0.00,,,0.00,0.0,WUHU216DAVISVP2,2013-08-03 10:57:00,
2013-08-03 04:02:00,65.4,55.1,29.83,WNW,294,0.0,0.0,69,0.00,,,0.00,0.0,WUHU216DAVISVP2,2013-08-03 11:02:00,
2013-08-03 04:07:00,65.0,54.7,29.83,WNW,294,1.0,2.0,69,0.00,,,0.00,0.0,WUHU216DAVISVP2,2013-08-03 11:07:00,
2013-08-03 04:12:00,64.1,54.3,29.84,WNW,294,0.0,2.0,70,0.00,,,0.00,0.0,WUHU216DAVISVP2,2013-08-03 11:12:00,
2013-08-03 04:17:00,63.7,54.6,29.84,WNW,294,0.0,2.0,72,0.00,,,0.00,0.0,WUHU216DAVISVP2,2013-08-03 11:17:00,
2013-08-03 04:22:00,63.5,54.4,29.84,WNW,294,0.0,2.0,72,0.00,,,0.00,0.0,WUHU216DAVISVP2,2013-08-03 11:22:00,
2013-08-03 04:27:00,63.4,54.4,29.84,WNW,294,0.0,2.0,72,0.00,,,0.00,0.0,WUHU216DAVISVP2,2013-08-03 11:27:00,
2013-08-03 04:32:00,63.7,54.3,29.84,WNW,294,1.0,2.0,71,0.00,,,0.00,0.0,WUHU216DAVISVP2,2013-08-03 11:32:00,
2013-08-03 04:37:00,64.0,54.6,29.84,WNW,294,1.0,2.0,71,0.00,,,0.00,0.0,WUHU216DAVISVP2,2013-08-03 11:37:00,
2013-08-03 04:42:00,64.2,54.7,29.84,WNW,294,0.0,2.0,71,0.00,,,0.00,0.0,WUHU216DAVISVP2,2013-08-03 11:42:00,
2013-08-03 04:47:00,64.1,55.0,29.84,WNW,294,0.0,2.0,72,0.00,,,0.00,0.0,WUHU216DAVISVP2,2013-08-03 11:47:00,
2013-08-03 04:52:00,63.8,54.7,29.84,WNW,294,0.0,2.0,72,0.00,,,0.00,0.0,WUHU216DAVISVP2,2013-08-03 11:52:00,
2013-08-03 04:57:00,63.5,54.8,29.84,WNW,294,0.0,0.0,73,0.00,,,0.00,0.0,WUHU216DAVISVP2,2013-08-03 11:57:00,
2013-08-03 05:02:00,63.3,55.0,29.84,WNW,294,0.0,0.0,74,0.00,,,0.00,0.0,WUHU216DAVISVP2,2013-08-03 12:02:00,
2013-08-03 05:07:00,62.9,55.3,29.84,WNW,294,0.0,0.0,76,0.00,,,0.00,0.0,WUHU216DAVISVP2,2013-08-03 12:07:00,
2013-08-03 05:12:00,62.3,54.7,29.84,WNW,294,0.0,0.0,76,0.00,,,0.00,0.0,WUHU216DAVISVP2,2013-08-03 12:12:00,
2013-08-03 05:17:00,62.0,54.4,29.84,WNW,294,0.0,0.0,76,0.00,,,0.00,0.0,WUHU216DAVISVP2,2013-08-03 12:17:00,
2013-08-03 05:22:00,62.0,54.8,29.84,WNW,294,1.0,1.0,77,0.00,,,0.00,0.0,WUHU216DAVISVP2,2013-08-03 12:22:00,
2013-08-03 05:27:00,62.4,54.1,29.84,WNW,294,0.0,2.0,74,0.00,,,0.00,0.0,WUHU216DAVISVP2,2013-08-03 12:27:00,
2013-08-03 05:32:00,62.6,54.3,29.84,WNW,294,0.0,2.0,74,0.00,,,0.00,0.0,WUHU216DAVISVP2,2013-08-03 12:32:00,
2013-08-03 05:37:00,62.7,54.4,29.84,WNW,294,0.0,2.0,74,0.00,,,0.00,0.0,WUHU216DAVISVP2,2013-08-03 12:37:00,
2013-08-03 05:42:00,62.8,54.1,29.84,WNW,294,0.0,2.0,73,0.00,,,0.00,0.0,WUHU216DAVISVP2,2013-08-03 12:42:00,
2013-08-03 05:47:00,62.9,54.1,29.85,WNW,294,0.0,0.0,73,0.00,,,0.00,0.0,WUHU216DAVISVP2,2013-08-03 12:47:00,
2013-08-03 05:52:00,62.9,54.1,29.85,WNW,294,2.0,2.0,73,0.00,,,0.00,0.0,WUHU216DAVISVP2,2013-08-03 12:52:00,
2013-08-03 05:57:00,63.0,53.8,29.85,WNW,294,0.0,2.0,72,0.00,,,0.00,0.0,WUHU216DAVISVP2,2013-08-03 12:57:00,
2013-08-03 06:02:00,62.9,53.7,29.85,WNW,294,0.0,2.0,72,0.00,,,0.00,0.0,WUHU216DAVISVP2,2013-08-03 13:02:00,
2013-08-03 06:07:00,62.8,54.0,29.85,WNW,294,0.0,2.0,73,0.00,,,0.00,0.0,WUHU216DAVISVP2,2013-08-03 13:07:00,
2013-08-03 06:12:00,62.7,53.9,29.85,WNW,294,0.0,1.0,73,0.00,,,0.00,5.0,WUHU216DAVISVP2,2013-08-03 13:12:00,
2013-08-03 06:17:00,62.6,54.2,29.85,WNW,294,0.0,1.0,74,0.00,,,0.00,7.0,WUHU216DAVISVP2,2013-08-03 13:17:00,
2013-08-03 06:22:00,62.3,54.0,29.85,WNW,294,0.0,0.0,74,0.00,,,0.00,9.0,WUHU216DAVISVP2,2013-08-03 13:22:00,
2013-08-03 06:27:00,62.2,53.9,29.85,WNW,294,0.0,0.0,74,0.00,,,0.00,14.0,WUHU216DAVISVP2,2013-08-03 13:27:00,
2013-08-03 06:32:00,62.3,54.4,29.85,WNW,294,0.0,0.0,75,0.00,,,0.00,19.0,WUHU216DAVISVP2,2013-08-03 13:32:00,
2013-08-03 06:37:00,62.2,54.3,29.86,WNW,294,0.0,1.0,75,0.00,,,0.00,18.0,WUHU216DAVISVP2,2013-08-03 13:37:00,
2013-08-03 06:42:00,62.0,53.7,29.86,WNW,294,0.0,1.0,74,0.00,,,0.00,28.0,WUHU216DAVISVP2,2013-08-03 13:42:00,
2013-08-03 06:47:00,62.2,54.3,29.86,WNW,294,0.0,1.0,75,0.00,,,0.00,39.0,WUHU216DAVISVP2,2013-08-03 13:47:00,
2013-08-03 06:52:00,62.5,54.2,29.86,WNW,294,0.0,0.0,74,0.00,,,0.00,67.0,WUHU216DAVISVP2,2013-08-03 13:52:00,
2013-08-03 06:57:00,63.0,54.7,29.86,WNW,294,0.0,0.0,74,0.00,,,0.00,77.0,WUHU216DAVISVP2,2013-08-03 13:57:00,
2013-08-03 07:02:00,63.5,54.4,29.86,WNW,294,0.0,1.0,72,0.00,,,0.00,58.0,WUHU216DAVISVP2,2013-08-03 14:02:00,
2013-08-03 07:07:00,63.5,54.4,29.86,WNW,294,0.0,1.0,72,0.00,,,0.00,72.0,WUHU216DAVISVP2,2013-08-03 14:07:00,
2013-08-03 07:12:00,63.6,54.5,29.87,WNW,294,0.0,1.0,72,0.00,,,0.00,81.0,WUHU216DAVISVP2,2013-08-03 14:12:00,
2013-08-03 07:17:00,63.7,54.6,29.87,WNW,294,0.0,1.0,72,0.00,,,0.00,83.0,WUHU216DAVISVP2,2013-08-03 14:17:00,
2013-08-03 07:22:00,64.0,54.9,29.87,WNW,294,0.0,2.0,72,0.00,,,0.00,116.0,WUHU216DAVISVP2,2013-08-03 14:22:00,
2013-08-03 07:27:00,64.5,55.0,29.87,WNW,294,0.0,2.0,71,0.00,,,0.00,156.0,WUHU216DAVISVP2,2013-08-03 14:27:00,
2013-08-03 07:32:00,65.0,55.5,29.88,WNW,294,0.0,2.0,71,0.00,,,0.00,176.0,WUHU216DAVISVP2,2013-08-03 14:32:00,
2013-08-03 07:37:00,65.6,55.7,29.88,WNW,294,0.0,2.0,70,0.00,,,0.00,179.0,WUHU216DAVISVP2,2013-08-03 14:37:00,
2013-08-03 07:42:00,66.2,55.9,29.88,WNW,294,0.0,0.0,69,0.00,,,0.00,216.0,WUHU216DAVISVP2,2013-08-03 14:42:00,
2013-08-03 07:47:00,66.7,55.6,29.88,WNW,294,0.0,2.0,67,0.00,,,0.00,220.0,WUHU216DAVISVP2,2013-08-03 14:47:00,
2013-08-03 07:52:00,67.2,55.6,29.88,WNW,294,0.0,3.0,66,0.00,,,0.00,246.0,WUHU216DAVISVP2,2013-08-03 14:52:00,
2013-08-03 07:57:00,67.7,55.7,29.88,WNW,294,2.0,3.0,65,0.00,,,0.00,308.0,WUHU216DAVISVP2,2013-08-03 14:57:00,
2013-08-03 08:02:00,68.2,56.2,29.89,WNW,294,0.0,3.0,65,0.00,,,0.00,318.0,WUHU216DAVISVP2,2013-08-03 15:02:00,
2013-08-03 08:07:00,69.0,56.1,29.89,WNW,294,2.0,3.0,63,0.00,,,0.00,341.0,WUHU216DAVISVP2,2013-08-03 15:07:00,
2013-08-03 08:12:00,69.5,56.1,29.89,WNW,294,0.0,3.0,62,0.00,,,0.00,383.0,WUHU216DAVISVP2,2013-08-03 15:12:00,
2013-08-03 08:17:00,70.0,56.6,29.89,WNW,294,0.0,3.0,62,0.00,,,0.00,380.0,WUHU216DAVISVP2,2013-08-03 15:17:00,
2013-08-03 08:22:00,70.5,56.1,29.89,WNW,294,1.0,3.0,60,0.00,,,0.00,452.0,WUHU216DAVISVP2,2013-08-03 15:22:00,
2013-08-03 08:27:00,70.9,56.0,29.89,WNW,294,4.0,4.0,59,0.00,,,0.00,350.0,WUHU216DAVISVP2,2013-08-03 15:27:00,
2013-08-03 08:32:00,71.2,56.8,29.89,WNW,294,3.0,4.0,60,0.00,,,0.00,258.0,WUHU216DAVISVP2,2013-08-03 15:32:00,
2013-08-03 08:37:00,71.6,56.7,29.89,WNW,294,2.0,4.0,59,0.00,,,0.00,513.0,WUHU216DAVISVP2,2013-08-03 15:37:00,
2013-08-03 08:42:00,72.0,56.1,29.89,SW,220,3.0,4.0,57,0.00,,,0.00,327.0,WUHU216DAVISVP2,2013-08-03 15:42:00,
2013-08-03 08:47:00,72.4,56.5,29.89,SSW,211,2.0,4.0,57,0.00,,,0.00,390.0,WUHU216DAVISVP2,2013-08-03 15:47:00,
2013-08-03 08:52:00,72.4,56.0,29.89,SSW,198,3.0,6.0,56,0.00,,,0.00,383.0,WUHU216DAVISVP2,2013-08-03 15:52:00,
2013-08-03 08:57:00,72.6,56.7,29.89,SSW,198,2.0,6.0,57,0.00,,,0.00,438.0,WUHU216DAVISVP2,2013-08-03 15:57:00,
2013-08-03 09:02:00,73.1,56.6,29.89,SSW,196,1.0,6.0,56,0.00,,,0.00,452.0,WUHU216DAVISVP2,2013-08-03 16:02:00,
2013-08-03 09:07:00,73.4,56.9,29.89,SSW,194,1.0,6.0,56,0.00,,,0.00,443.0,WUHU216DAVISVP2,2013-08-03 16:07:00,
2013-08-03 09:12:00,73.9,56.3,29.89,SSE,156,2.0,5.0,54,0.00,,,0.00,443.0,WUHU216DAVISVP2,2013-08-03 16:12:00,
2013-08-03 09:17:00,74.4,56.3,29.89,South,191,3.0,6.0,53,0.00,,,0.00,457.0,WUHU216DAVISVP2,2013-08-03 16:17:00,
2013-08-03 09:22:00,74.3,56.2,29.89,South,174,2.0,6.0,53,0.00,,,0.00,483.0,WUHU216DAVISVP2,2013-08-03 16:22:00,
2013-08-03 09:27:00,74.8,56.1,29.89,SSE,159,1.0,6.0,52,0.00,,,0.00,598.0,WUHU216DAVISVP2,2013-08-03 16:27:00,
2013-08-03 09:32:00,75.4,56.7,29.89,South,176,3.0,7.0,52,0.00,,,0.00,631.0,WUHU216DAVISVP2,2013-08-03 16:32:00,
2013-08-03 09:37:00,75.5,56.8,29.88,SSW,206,2.0,8.0,52,0.00,,,0.00,592.0,WUHU216DAVISVP2,2013-08-03 16:37:00,
2013-08-03 09:42:00,75.7,56.4,29.88,South,190,1.0,8.0,51,0.00,,,0.00,635.0,WUHU216DAVISVP2,2013-08-03 16:42:00,
2013-08-03 09:47:00,75.8,57.0,29.88,South,186,0.0,8.0,52,0.00,,,0.00,598.0,WUHU216DAVISVP2,2013-08-03 16:47:00,
2013-08-03 09:52:00,76.5,57.1,29.88,South,189,4.0,8.0,51,0.00,,,0.00,698.0,WUHU216DAVISVP2,2013-08-03 16:52:00,
2013-08-03 09:57:00,76.9,57.5,29.88,South,175,4.0,8.0,51,0.00,,,0.00,561.0,WUHU216DAVISVP2,2013-08-03 16:57:00,
2013-08-03 10:02:00,77.5,57.5,29.89,SSE,155,5.0,7.0,50,0.00,,,0.00,591.0,WUHU216DAVISVP2,2013-08-03 17:02:00,
2013-08-03 10:07:00,78.0,58.0,29.89,SSW,202,6.0,7.0,50,0.00,,,0.00,684.0,WUHU216DAVISVP2,2013-08-03 17:07:00,
2013-08-03 10:12:00,78.0,56.8,29.89,SSW,194,5.0,7.0,48,0.00,,,0.00,650.0,WUHU216DAVISVP2,2013-08-03 17:12:00,
2013-08-03 10:17:00,78.0,57.4,29.89,South,186,2.0,6.0,49,0.00,,,0.00,673.0,WUHU216DAVISVP2,2013-08-03 17:17:00,
2013-08-03 10:22:00,79.1,57.8,29.89,South,191,5.0,7.0,48,0.00,,,0.00,719.0,WUHU216DAVISVP2,2013-08-03 17:22:00,
2013-08-03 10:27:00,79.4,57.5,29.89,SSE,163,0.0,7.0,47,0.00,,,0.00,782.0,WUHU216DAVISVP2,2013-08-03 17:27:00,
2013-08-03 10:32:00,80.1,58.1,29.89,South,180,4.0,7.0,47,0.00,,,0.00,779.0,WUHU216DAVISVP2,2013-08-03 17:32:00,
2013-08-03 10:37:00,80.6,57.3,29.89,SW,217,5.0,7.0,45,0.00,,,0.00,796.0,WUHU216DAVISVP2,2013-08-03 17:37:00,
2013-08-03 10:42:00,80.7,56.1,29.89,WSW,249,3.0,7.0,43,0.00,,,0.00,742.0,WUHU216DAVISVP2,2013-08-03 17:42:00,
2013-08-03 10:47:00,80.8,56.2,29.89,SSW,192,5.0,8.0,43,0.00,,,0.00,803.0,WUHU216DAVISVP2,2013-08-03 17:47:00,
2013-08-03 10:52:00,81.2,56.6,29.89,WSW,240,5.0,8.0,43,0.00,,,0.00,805.0,WUHU216DAVISVP2,2013-08-03 17:52:00,
2013-08-03 10:57:00,81.8,57.1,29.88,SW,217,3.0,8.0,43,0.00,,,0.00,789.0,WUHU216DAVISVP2,2013-08-03 17:57:00,
2013-08-03 11:02:00,82.1,56.0,29.88,South,180,4.0,8.0,41,0.00,,,0.00,809.0,WUHU216DAVISVP2,2013-08-03 18:02:00,
2013-08-03 11:07:00,82.7,57.2,29.88,SSE,166,0.0,8.0,42,0.00,,,0.00,812.0,WUHU216DAVISVP2,2013-08-03 18:07:00,
2013-08-03 11:12:00,83.9,57.6,29.88,SSW,194,5.0,7.0,41,0.00,,,0.00,826.0,WUHU216DAVISVP2,2013-08-03 18:12:00,
2013-08-03 11:17:00,83.6,56.7,29.88,WSW,247,4.0,8.0,40,0.00,,,0.00,812.0,WUHU216DAVISVP2,2013-08-03 18:17:00,
2013-08-03 11:22:00,84.1,58.5,29.88,West,265,2.0,8.0,42,0.00,,,0.00,814.0,WUHU216DAVISVP2,2013-08-03 18:22:00,
2013-08-03 11:27:00,84.1,56.4,29.88,WSW,248,0.0,8.0,39,0.00,,,0.00,861.0,WUHU216DAVISVP2,2013-08-03 18:27:00,
2013-08-03 11:32:00,84.4,56.7,29.88,WSW,240,6.0,7.0,39,0.00,,,0.00,860.0,WUHU216DAVISVP2,2013-08-03 18:32:00,
2013-08-03 11:37:00,84.9,57.1,29.88,SSW,209,0.0,7.0,39,0.00,,,0.00,861.0,WUHU216DAVISVP2,2013-08-03 18:37:00,
2013-08-03 11:42:00,85.4,56.1,29.88,WSW,244,5.0,7.0,37,0.00,,,0.00,870.0,WUHU216DAVISVP2,2013-08-03 18:42:00,
2013-08-03 11:47:00,85.8,55.7,29.88,WSW,240,4.0,7.0,36,0.00,,,0.00,877.0,WUHU216DAVISVP2,2013-08-03 18:47:00,
2013-08-03 11:52:00,85.9,55.0,29.87,West,271,2.0,7.0,35,0.00,,,0.00,877.0,WUHU216DAVISVP2,2013-08-03 18:52:00,
2013-08-03 11:57:00,85.9,55.0,29.87,SW,219,3.0,7.0,35,0.00,,,0.00,881.0,WUHU216DAVISVP2,2013-08-03 18:57:00,
2013-08-03 12:02:00,86.6,56.4,29.87,SSW,210,2.0,6.0,36,0.00,,,0.00,889.0,WUHU216DAVISVP2,2013-08-03 19:02:00,
2013-08-03 12:07:00,87.1,54.4,29.87,WSW,254,1.0,6.0,33,0.00,,,0.00,893.0,WUHU216DAVISVP2,2013-08-03 19:07:00,
2013-08-03 12:12:00,87.2,56.9,29.87,WSW,245,2.0,6.0,36,0.00,,,0.00,893.0,WUHU216DAVISVP2,2013-08-03 19:12:00,
2013-08-03 12:17:00,87.7,56.6,29.87,West,259,3.0,7.0,35,0.00,,,0.00,889.0,WUHU216DAVISVP2,2013-08-03 19:17:00,
2013-08-03 12:22:00,87.6,54.8,29.86,WSW,251,4.0,8.0,33,0.00,,,0.00,904.0,WUHU216DAVISVP2,2013-08-03 19:22:00,
2013-08-03 12:27:00,87.6,56.6,29.86,WSW,240,2.0,8.0,35,0.00,,,0.00,902.0,WUHU216DAVISVP2,2013-08-03 19:27:00,
2013-08-03 12:32:00,88.0,55.3,29.86,NW,304,3.0,8.0,33,0.00,,,0.00,900.0,WUHU216DAVISVP2,2013-08-03 19:32:00,
2013-08-03 12:37:00,88.4,56.5,29.86,WNW,283,8.0,8.0,34,0.00,,,0.00,905.0,WUHU216DAVISVP2,2013-08-03 19:37:00,
2013-08-03 12:42:00,88.4,56.5,29.86,WSW,250,2.0,10.0,34,0.00,,,0.00,911.0,WUHU216DAVISVP2,2013-08-03 19:42:00,
2013-08-03 12:47:00,88.2,55.5,29.86,WSW,242,3.0,10.0,33,0.00,,,0.00,898.0,WUHU216DAVISVP2,2013-08-03 19:47:00,
2013-08-03 12:52:00,88.7,55.8,29.86,NW,309,6.0,10.0,33,0.00,,,0.00,909.0,WUHU216DAVISVP2,2013-08-03 19:52:00,
2013-08-03 12:57:00,89.3,54.6,29.86,WNW,286,3.0,9.0,31,0.00,,,0.00,912.0,WUHU216DAVISVP2,2013-08-03 19:57:00,
2013-08-03 13:02:00,89.4,51.9,29.86,WNW,299,7.0,9.0,28,0.00,,,0.00,907.0,WUHU216DAVISVP2,2013-08-03 20:02:00,
2013-08-03 13:07:00,89.4,52.9,29.86,WSW,255,3.0,9.0,29,0.00,,,0.00,914.0,WUHU216DAVISVP2,2013-08-03 20:07:00,
2013-08-03 13:12:00,89.6,53.0,29.86,NW,308,2.0,9.0,29,0.00,,,0.00,918.0,WUHU216DAVISVP2,2013-08-03 20:12:00,
2013-08-03 13:17:00,89.7,53.1,29.86,WSW,247,6.0,9.0,29,0.00,,,0.00,905.0,WUHU216DAVISVP2,2013-08-03 20:17:00,
2013-08-03 13:22:00,90.3,53.6,29.86,WSW,238,4.0,9.0,29,0.00,,,0.00,914.0,WUHU216DAVISVP2,2013-08-03 20:22:00,
2013-08-03 13:27:00,91.3,55.4,29.86,West,273,2.0,9.0,30,0.00,,,0.00,895.0,WUHU216DAVISVP2,2013-08-03 20:27:00,
2013-08-03 13:32:00,91.4,54.6,29.85,SW,225,4.0,9.0,29,0.00,,,0.00,909.0,WUHU216DAVISVP2,2013-08-03 20:32:00,
2013-08-03 13:37:00,91.3,54.5,29.85,NW,306,6.0,9.0,29,0.00,,,0.00,888.0,WUHU216DAVISVP2,2013-08-03 20:37:00,
2013-08-03 13:42:00,90.7,52.0,29.85,WSW,250,5.0,9.0,27,0.00,,,0.00,889.0,WUHU216DAVISVP2,2013-08-03 20:42:00,
2013-08-03 13:47:00,90.7,53.0,29.85,WNW,293,2.0,9.0,28,0.00,,,0.00,895.0,WUHU216DAVISVP2,2013-08-03 20:47:00,
2013-08-03 13:52:00,91.2,54.4,29.85,WNW,301,5.0,9.0,29,0.00,,,0.00,884.0,WUHU216DAVISVP2,2013-08-03 20:52:00,
2013-08-03 13:57:00,91.5,53.7,29.85,WNW,296,2.0,8.0,28,0.00,,,0.00,884.0,WUHU216DAVISVP2,2013-08-03 20:57:00,
2013-08-03 14:02:00,92.2,50.2,29.85,West,265,2.0,8.0,24,0.00,,,0.00,884.0,WUHU216DAVISVP2,2013-08-03 21:02:00,
2013-08-03 14:07:00,92.3,46.7,29.85,WNW,297,3.0,8.0,21,0.00,,,0.00,879.0,WUHU216DAVISVP2,2013-08-03 21:07:00,
2013-08-03 14:12:00,92.4,49.2,29.84,NW,324,4.0,8.0,23,0.00,,,0.00,867.0,WUHU216DAVISVP2,2013-08-03 21:12:00,
2013-08-03 14:17:00,92.8,50.7,29.84,WNW,298,2.0,8.0,24,0.00,,,0.00,860.0,WUHU216DAVISVP2,2013-08-03 21:17:00,
2013-08-03 14:22:00,93.1,50.9,29.84,WSW,246,5.0,9.0,24,0.00,,,0.00,865.0,WUHU216DAVISVP2,2013-08-03 21:22:00,
2013-08-03 14:27:00,92.6,47.0,29.84,West,279,0.0,10.0,21,0.00,,,0.00,865.0,WUHU216DAVISVP2,2013-08-03 21:27:00,
2013-08-03 14:32:00,92.7,48.3,29.84,West,268,3.0,10.0,22,0.00,,,0.00,856.0,WUHU216DAVISVP2,2013-08-03 21:32:00,
2013-08-03 14:37:00,92.9,48.5,29.84,SW,220,2.0,10.0,22,0.00,,,0.00,842.0,WUHU216DAVISVP2,2013-08-03 21:37:00,
2013-08-03 14:42:00,93.1,47.4,29.84,WSW,253,4.0,10.0,21,0.00,,,0.00,842.0,WUHU216DAVISVP2,2013-08-03 21:42:00,
2013-08-03 14:47:00,93.8,49.2,29.84,NW,323,8.0,9.0,22,0.00,,,0.00,826.0,WUHU216DAVISVP2,2013-08-03 21:47:00,
2013-08-03 14:52:00,94.0,49.4,29.84,North,5,7.0,10.0,22,0.00,,,0.00,817.0,WUHU216DAVISVP2,2013-08-03 21:52:00,
2013-08-03 14:57:00,94.5,48.5,29.83,NNE,13,3.0,10.0,21,0.00,,,0.00,812.0,WUHU216DAVISVP2,2013-08-03 21:57:00,
2013-08-03 15:02:00,94.2,51.8,29.83,NNW,327,4.0,10.0,24,0.00,,,0.00,800.0,WUHU216DAVISVP2,2013-08-03 22:02:00,
2013-08-03 15:07:00,94.5,48.5,29.83,NW,324,3.0,8.0,21,0.00,,,0.00,800.0,WUHU216DAVISVP2,2013-08-03 22:07:00,
2013-08-03 15:12:00,93.9,48.0,29.83,West,264,3.0,9.0,21,0.00,,,0.00,782.0,WUHU216DAVISVP2,2013-08-03 22:12:00,
2013-08-03 15:17:00,93.8,48.0,29.83,West,272,6.0,10.0,21,0.00,,,0.00,779.0,WUHU216DAVISVP2,2013-08-03 22:17:00,
2013-08-03 15:22:00,93.7,49.1,29.83,WSW,243,8.0,12.0,22,0.00,,,0.00,763.0,WUHU216DAVISVP2,2013-08-03 22:22:00,
2013-08-03 15:27:00,93.8,50.4,29.82,West,280,6.0,12.0,23,0.00,,,0.00,749.0,WUHU216DAVISVP2,2013-08-03 22:27:00,
2013-08-03 15:32:00,94.2,51.8,29.82,WNW,300,8.0,12.0,24,0.00,,,0.00,742.0,WUHU216DAVISVP2,2013-08-03 22:32:00,
2013-08-03 15:37:00,93.7,52.5,29.82,NNW,337,8.0,12.0,25,0.00,,,0.00,724.0,WUHU216DAVISVP2,2013-08-03 22:37:00,
2013-08-03 15:42:00,93.8,52.6,29.82,NW,313,3.0,9.0,25,0.00,,,0.00,712.0,WUHU216DAVISVP2,2013-08-03 22:42:00,
2013-08-03 15:47:00,94.2,50.7,29.82,NW,309,3.0,9.0,23,0.00,,,0.00,708.0,WUHU216DAVISVP2,2013-08-03 22:47:00,
2013-08-03 15:52:00,94.6,49.9,29.82,NW,313,6.0,9.0,22,0.00,,,0.00,693.0,WUHU216DAVISVP2,2013-08-03 22:52:00,
2013-08-03 15:57:00,94.6,49.9,29.82,NW,312,3.0,9.0,22,0.00,,,0.00,680.0,WUHU216DAVISVP2,2013-08-03 22:57:00,
2013-08-03 16:02:00,94.9,48.9,29.81,NNW,327,4.0,9.0,21,0.00,,,0.00,670.0,WUHU216DAVISVP2,2013-08-03 23:02:00,
2013-08-03 16:07:00,94.8,47.5,29.81,NNW,338,8.0,9.0,20,0.00,,,0.00,659.0,WUHU216DAVISVP2,2013-08-03 23:07:00,
2013-08-03 16:12:00,94.9,47.6,29.81,NW,311,3.0,9.0,20,0.00,,,0.00,643.0,WUHU216DAVISVP2,2013-08-03 23:12:00,
2013-08-03 16:17:00,95.1,46.4,29.81,NW,305,3.0,9.0,19,0.00,,,0.00,633.0,WUHU216DAVISVP2,2013-08-03 23:17:00,
2013-08-03 16:22:00,95.3,46.5,29.81,NNE,19,4.0,9.0,19,0.00,,,0.00,621.0,WUHU216DAVISVP2,2013-08-03 23:22:00,
2013-08-03 16:27:00,95.9,44.1,29.81,NNW,341,4.0,10.0,17,0.00,,,0.00,608.0,WUHU216DAVISVP2,2013-08-03 23:27:00,
2013-08-03 16:32:00,95.9,45.6,29.81,NW,313,5.0,10.0,18,0.00,,,0.00,596.0,WUHU216DAVISVP2,2013-08-03 23:32:00,
2013-08-03 16:37:00,95.8,47.0,29.81,NW,315,3.0,10.0,19,0.00,,,0.00,580.0,WUHU216DAVISVP2,2013-08-03 23:37:00,
2013-08-03 16:42:00,95.8,45.5,29.81,NW,309,4.0,10.0,18,0.00,,,0.00,570.0,WUHU216DAVISVP2,2013-08-03 23:42:00,
2013-08-03 16:47:00,95.3,46.5,29.81,NW,313,5.0,8.0,19,0.00,,,0.00,555.0,WUHU216DAVISVP2,2013-08-03 23:47:00,
2013-08-03 16:52:00,94.9,48.9,29.80,NNW,333,3.0,8.0,21,0.00,,,0.00,540.0,WUHU216DAVISVP2,2013-08-03 23:52:00,
2013-08-03 16:57:00,95.4,48.0,29.80,WNW,293,7.0,8.0,20,0.00,,,0.00,526.0,WUHU216DAVISVP2,2013-08-03 23:57:00,
2013-08-03 17:02:00,95.0,47.6,29.80,WNW,296,0.0,7.0,20,0.00,,,0.00,510.0,WUHU216DAVISVP2,2013-08-04 00:02:00,
2013-08-03 17:07:00,95.0,47.6,29.80,NNW,327,4.0,8.0,20,0.00,,,0.00,496.0,WUHU216DAVISVP2,2013-08-04 00:07:00,
2013-08-03 17:12:00,94.8,47.5,29.80,NW,306,4.0,8.0,20,0.00,,,0.00,480.0,WUHU216DAVISVP2,2013-08-04 00:12:00,
2013-08-03 17:17:00,94.8,43.2,29.80,NW,304,4.0,8.0,17,0.00,,,0.00,466.0,WUHU216DAVISVP2,2013-08-04 00:17:00,
2013-08-03 17:22:00,95.0,44.9,29.80,NNW,336,1.0,8.0,18,0.00,,,0.00,450.0,WUHU216DAVISVP2,2013-08-04 00:22:00,
2013-08-03 17:27:00,95.3,49.2,29.79,NNW,338,2.0,7.0,21,0.00,,,0.00,434.0,WUHU216DAVISVP2,2013-08-04 00:27:00,
2013-08-03 17:32:00,95.4,48.0,29.79,NW,315,6.0,8.0,20,0.00,,,0.00,420.0,WUHU216DAVISVP2,2013-08-04 00:32:00,
2013-08-03 17:37:00,95.0,46.3,29.79,WNW,298,3.0,8.0,19,0.00,,,0.00,404.0,WUHU216DAVISVP2,2013-08-04 00:37:00,
2013-08-03 17:42:00,94.9,44.8,29.79,WSW,242,5.0,8.0,18,0.00,,,0.00,388.0,WUHU216DAVISVP2,2013-08-04 00:42:00,
2013-08-03 17:47:00,94.6,43.0,29.79,WNW,292,4.0,8.0,17,0.00,,,0.00,371.0,WUHU216DAVISVP2,2013-08-04 00:47:00,
2013-08-03 17:52:00,94.9,43.3,29.79,NW,318,2.0,8.0,17,0.00,,,0.00,353.0,WUHU216DAVISVP2,2013-08-04 00:52:00,
2013-08-03 17:57:00,95.2,43.5,29.78,WNW,282,0.0,8.0,17,0.00,,,0.00,339.0,WUHU216DAVISVP2,2013-08-04 00:57:00,
2013-08-03 18:02:00,95.8,45.5,29.78,NNW,329,0.0,7.0,18,0.00,,,0.00,323.0,WUHU216DAVISVP2,2013-08-04 01:02:00,
2013-08-03 18:07:00,96.0,44.2,29.79,NW,313,2.0,7.0,17,0.00,,,0.00,306.0,WUHU216DAVISVP2,2013-08-04 01:07:00,
2013-08-03 18:12:00,95.8,45.5,29.79,NW,325,3.0,7.0,18,0.00,,,0.00,290.0,WUHU216DAVISVP2,2013-08-04 01:12:00,
2013-08-03 18:18:00,95.3,45.1,29.78,NW,320,4.0,7.0,18,0.00,,,0.00,274.0,WUHU216DAVISVP2,2013-08-04 01:18:00,
2013-08-03 18:23:00,94.7,44.6,29.79,NNW,329,1.0,7.0,18,0.00,,,0.00,257.0,WUHU216DAVISVP2,2013-08-04 01:23:00,
2013-08-03 18:28:00,94.6,46.0,29.78,WNW,297,7.0,7.0,19,0.00,,,0.00,239.0,WUHU216DAVISVP2,2013-08-04 01:28:00,
2013-08-03 18:33:00,94.2,45.6,29.78,WNW,290,0.0,7.0,19,0.00,,,0.00,223.0,WUHU216DAVISVP2,2013-08-04 01:33:00,
2013-08-03 18:38:00,94.3,45.7,29.79,NW,306,5.0,7.0,19,0.00,,,0.00,204.0,WUHU216DAVISVP2,2013-08-04 01:38:00,
2013-08-03 18:42:00,94.3,47.1,29.78,WNW,296,3.0,7.0,20,0.00,,,0.00,181.0,WUHU216DAVISVP2,2013-08-04 01:42:00,
2013-08-03 18:48:00,94.2,47.0,29.78,NW,311,2.0,6.0,20,0.00,,,0.00,162.0,WUHU216DAVISVP2,2013-08-04 01:48:00,
2013-08-03 18:53:00,94.0,46.8,29.78,WNW,297,3.0,6.0,20,0.00,,,0.00,144.0,WUHU216DAVISVP2,2013-08-04 01:53:00,
2013-08-03 18:58:00,93.9,48.0,29.78,WNW,293,5.0,6.0,21,0.00,,,0.00,125.0,WUHU216DAVISVP2,2013-08-04 01:58:00,
2013-08-03 19:03:00,93.7,47.9,29.78,WNW,298,0.0,6.0,21,0.00,,,0.00,111.0,WUHU216DAVISVP2,2013-08-04 02:03:00,
2013-08-03 19:08:00,93.6,47.8,29.78,WNW,284,5.0,6.0,21,0.00,,,0.00,91.0,WUHU216DAVISVP2,2013-08-04 02:08:00,
2013-08-03 19:13:00,93.2,47.5,29.78,WNW,290,2.0,6.0,21,0.00,,,0.00,76.0,WUHU216DAVISVP2,2013-08-04 02:13:00,
2013-08-03 19:17:00,92.9,47.2,29.79,WNW,295,3.0,6.0,21,0.00,,,0.00,63.0,WUHU216DAVISVP2,2013-08-04 02:17:00,
2013-08-03 19:23:00,92.6,47.0,29.79,WNW,292,4.0,6.0,21,0.00,,,0.00,51.0,WUHU216DAVISVP2,2013-08-04 02:23:00,
2013-08-03 19:27:00,92.3,48.0,29.79,WNW,292,0.0,5.0,22,0.00,,,0.00,40.0,WUHU216DAVISVP2,2013-08-04 02:27:00,
2013-08-03 19:33:00,92.0,47.7,29.78,WNW,292,2.0,5.0,22,0.00,,,0.00,30.0,WUHU216DAVISVP2,2013-08-04 02:33:00,
2013-08-03 19:38:00,91.9,48.8,29.79,WNW,292,2.0,5.0,23,0.00,,,0.00,21.0,WUHU216DAVISVP2,2013-08-04 02:38:00,
2013-08-03 19:42:00,91.6,48.6,29.78,WNW,292,3.0,5.0,23,0.00,,,0.00,16.0,WUHU216DAVISVP2,2013-08-04 02:42:00,
2013-08-03 19:47:00,91.2,49.4,29.79,WNW,292,1.0,4.0,24,0.00,,,0.00,12.0,WUHU216DAVISVP2,2013-08-04 02:47:00,
2013-08-03 19:53:00,90.8,49.0,29.79,WNW,292,1.0,4.0,24,0.00,,,0.00,9.0,WUHU216DAVISVP2,2013-08-04 02:53:00,
2013-08-03 19:58:00,90.3,49.7,29.79,WNW,292,1.0,4.0,25,0.00,,,0.00,5.0,WUHU216DAVISVP2,2013-08-04 02:58:00,
2013-08-03 20:03:00,89.8,49.2,29.79,WNW,292,0.0,3.0,25,0.00,,,0.00,0.0,WUHU216DAVISVP2,2013-08-04 03:03:00,
2013-08-03 20:08:00,89.5,50.0,29.79,WNW,292,0.0,3.0,26,0.00,,,0.00,0.0,WUHU216DAVISVP2,2013-08-04 03:08:00,
2013-08-03 20:13:00,89.1,50.7,29.79,WNW,292,0.0,3.0,27,0.00,,,0.00,0.0,WUHU216DAVISVP2,2013-08-04 03:13:00,
2013-08-03 20:18:00,88.7,50.3,29.79,WNW,292,0.0,2.0,27,0.00,,,0.00,0.0,WUHU216DAVISVP2,2013-08-04 03:18:00,
2013-08-03 20:23:00,88.5,51.1,29.79,WNW,292,0.0,1.0,28,0.00,,,0.00,0.0,WUHU216DAVISVP2,2013-08-04 03:23:00,
2013-08-03 20:28:00,88.0,53.5,29.79,WNW,292,0.0,1.0,31,0.00,,,0.00,0.0,WUHU216DAVISVP2,2013-08-04 03:28:00,
2013-08-03 20:33:00,86.8,54.1,29.79,WNW,292,0.0,1.0,33,0.00,,,0.00,0.0,WUHU216DAVISVP2,2013-08-04 03:33:00,
2013-08-03 20:38:00,85.7,55.6,29.79,WNW,292,0.0,0.0,36,0.00,,,0.00,0.0,WUHU216DAVISVP2,2013-08-04 03:38:00,
2013-08-03 20:43:00,84.5,56.0,29.79,WNW,292,0.0,0.0,38,0.00,,,0.00,0.0,WUHU216DAVISVP2,2013-08-04 03:43:00,
2013-08-03 20:48:00,83.4,55.8,29.79,WNW,292,0.0,0.0,39,0.00,,,0.00,0.0,WUHU216DAVISVP2,2013-08-04 03:48:00,
2013-08-03 20:53:00,82.8,56.0,29.80,WNW,292,0.0,0.0,40,0.00,,,0.00,0.0,WUHU216DAVISVP2,2013-08-04 03:53:00,
2013-08-03 20:58:00,82.0,56.6,29.80,WNW,292,0.0,0.0,42,0.00,,,0.00,0.0,WUHU216DAVISVP2,2013-08-04 03:58:00,
2013-08-03 21:01:00,81.5,56.2,29.80,WNW,292,0.0,1.0,42,0.00,,,0.00,0.0,WUHU216DAVISVP2,2013-08-04 04:01:00,
2013-08-03 21:07:00,81.1,55.8,29.80,WNW,292,0.0,1.0,42,0.00,,,0.00,0.0,WUHU216DAVISVP2,2013-08-04 04:07:00,
2013-08-03 21:11:00,80.8,56.2,29.80,WNW,292,0.0,1.0,43,0.00,,,0.00,0.0,WUHU216DAVISVP2,2013-08-04 04:11:00,
2013-08-03 21:17:00,80.5,55.3,29.81,WNW,292,0.0,1.0,42,0.00,,,0.00,0.0,WUHU216DAVISVP2,2013-08-04 04:17:00,
2013-08-03 21:22:00,80.4,53.8,29.81,WNW,292,0.0,0.0,40,0.00,,,0.00,0.0,WUHU216DAVISVP2,2013-08-04 04:22:00,
2013-08-03 21:27:00,80.7,54.1,29.81,WNW,292,0.0,0.0,40,0.00,,,0.00,0.0,WUHU216DAVISVP2,2013-08-04 04:27:00,
2013-08-03 21:32:00,81.0,53.6,29.81,WNW,292,0.0,3.0,39,0.00,,,0.00,0.0,WUHU216DAVISVP2,2013-08-04 04:32:00,
2013-08-03 21:37:00,81.3,53.9,29.82,WNW,292,0.0,3.0,39,0.00,,,0.00,0.0,WUHU216DAVISVP2,2013-08-04 04:37:00,
2013-08-03 21:42:00,81.6,54.2,29.82,WNW,292,0.0,3.0,39,0.00,,,0.00,0.0,WUHU216DAVISVP2,2013-08-04 04:42:00,
2013-08-03 21:47:00,81.4,54.1,29.82,WNW,292,0.0,3.0,39,0.00,,,0.00,0.0,WUHU216DAVISVP2,2013-08-04 04:47:00,
2013-08-03 21:52:00,80.9,54.2,29.82,WNW,292,0.0,1.0,40,0.00,,,0.00,0.0,WUHU216DAVISVP2,2013-08-04 04:52:00,
2013-08-03 21:57:00,80.7,53.4,29.82,WNW,292,0.0,0.0,39,0.00,,,0.00,0.0,WUHU216DAVISVP2,2013-08-04 04:57:00,
2013-08-03 22:02:00,80.7,54.1,29.82,WNW,292,0.0,0.0,40,0.00,,,0.00,0.0,WUHU216DAVISVP2,2013-08-04 05:02:00,
2013-08-03 22:07:00,80.0,56.8,29.82,WNW,292,0.0,0.0,45,0.00,,,0.00,0.0,WUHU216DAVISVP2,2013-08-04 05:07:00,
2013-08-03 22:12:00,79.1,56.5,29.83,WNW,292,0.0,1.0,46,0.00,,,0.00,0.0,WUHU216DAVISVP2,2013-08-04 05:12:00,
2013-08-03 22:17:00,78.6,56.7,29.83,WNW,292,0.0,1.0,47,0.00,,,0.00,0.0,WUHU216DAVISVP2,2013-08-04 05:17:00,
2013-08-03 22:22:00,78.2,57.0,29.83,WNW,292,0.0,1.0,48,0.00,,,0.00,0.0,WUHU216DAVISVP2,2013-08-04 05:22:00,
2013-08-03 22:27:00,77.5,56.3,29.83,WNW,292,0.0,2.0,48,0.00,,,0.00,0.0,WUHU216DAVISVP2,2013-08-04 05:27:00,
2013-08-03 22:32:00,76.9,55.8,29.83,WNW,292,0.0,2.0,48,0.00,,,0.00,0.0,WUHU216DAVISVP2,2013-08-04 05:32:00,
2013-08-03 22:37:00,76.6,56.0,29.83,WNW,292,0.0,2.0,49,0.00,,,0.00,0.0,WUHU216DAVISVP2,2013-08-04 05:37:00,
2013-08-03 22:42:00,76.1,56.2,29.83,WNW,292,0.0,2.0,50,0.00,,,0.00,0.0,WUHU216DAVISVP2,2013-08-04 05:42:00,
2013-08-03 22:47:00,75.5,56.2,29.83,WNW,292,0.0,0.0,51,0.00,,,0.00,0.0,WUHU216DAVISVP2,2013-08-04 05:47:00,
2013-08-03 22:52:00,75.1,55.7,29.83,WNW,292,0.0,0.0,51,0.00,,,0.00,0.0,WUHU216DAVISVP2,2013-08-04 05:52:00,
2013-08-03 22:57:00,75.0,55.2,29.83,WNW,292,0.0,0.0,50,0.00,,,0.00,0.0,WUHU216DAVISVP2,2013-08-04 05:57:00,
2013-08-03 23:02:00,75.2,54.8,29.83,WNW,292,0.0,0.0,49,0.00,,,0.00,0.0,WUHU216DAVISVP2,2013-08-04 06:02:00,
2013-08-03 23:07:00,75.3,54.9,29.83,WNW,292,0.0,0.0,49,0.00,,,0.00,0.0,WUHU216DAVISVP2,2013-08-04 06:07:00,
2013-08-03 23:12:00,75.4,55.6,29.83,WNW,292,0.0,0.0,50,0.00,,,0.00,0.0,WUHU216DAVISVP2,2013-08-04 06:12:00,
2013-08-03 23:17:00,75.3,54.9,29.83,WNW,292,0.0,0.0,49,0.00,,,0.00,0.0,WUHU216DAVISVP2,2013-08-04 06:17:00,
2013-08-03 23:22:00,75.5,55.1,29.83,WNW,292,0.0,1.0,49,0.00,,,0.00,0.0,WUHU216DAVISVP2,2013-08-04 06:22:00,
2013-08-03 23:27:00,75.7,55.8,29.84,WNW,292,0.0,1.0,50,0.00,,,0.00,0.0,WUHU216DAVISVP2,2013-08-04 06:27:00,
2013-08-03 23:32:00,75.7,55.3,29.83,WNW,292,0.0,1.0,49,0.00,,,0.00,0.0,WUHU216DAVISVP2,2013-08-04 06:32:00,
2013-08-03 23:37:00,75.5,55.6,29.84,WNW,292,0.0,1.0,50,0.00,,,0.00,0.0,WUHU216DAVISVP2,2013-08-04 06:37:00,
2013-08-03 23:42:00,75.6,55.7,29.84,WNW,292,0.0,1.0,50,0.00,,,0.00,0.0,WUHU216DAVISVP2,2013-08-04 06:42:00,
2013-08-03 23:47:00,75.9,55.4,29.84,WNW,292,0.0,1.0,49,0.00,,,0.00,0.0,WUHU216DAVISVP2,2013-08-04 06:47:00,
2013-08-03 23:52:00,76.0,55.5,29.84,WNW,292,2.0,3.0,49,0.00,,,0.00,0.0,WUHU216DAVISVP2,2013-08-04 06:52:00,
2013-08-03 23:57:00,76.0,55.5,29.84,WNW,292,2.0,3.0,49,0.00,,,0.00,0.0,WUHU216DAVISVP2,2013-08-04 06:57:00,